Time;durP1;ratioP1;P1;durP2;ratioP2;P2;SDS_P1;SDS_P2;PMS_P1;PMS_P2;Temp;Humidity;BMP_temperature;BMP_pressure;BME280_temperature;BME280_humidity;BME280_pressure;Samples;Min_cycle;Max_cycle;Signal;HPM_P1;HPM_P2
2022/02/11 00:01:48;;;;;;;13.45;7.40;;;6.50;99.90;;;;;;5002030;28;20045;-76
2022/02/11 00:07:07;;;;;;;14.68;8.25;;;6.50;99.90;;;;;;5020229;28;20040;-82
2022/02/11 00:09:33;;;;;;;13.85;7.85;;;6.40;99.90;;;;;;5020016;28;20060;-81
2022/02/11 00:11:59;;;;;;;16.52;7.85;;;6.40;99.90;;;;;;4998530;28;20035;-83
2022/02/11 00:14:27;;;;;;;17.77;9.68;;;;;;;;;;5018569;28;20405;-81
2022/02/11 00:16:52;;;;;;;14.05;7.85;;;6.50;99.90;;;;;;5004651;28;20037;-83
2022/02/11 00:19:18;;;;;;;14.35;7.88;;;6.50;99.90;;;;;;5002263;28;20040;-78
2022/02/11 00:21:44;;;;;;;13.93;7.22;;;6.40;99.90;;;;;;5009105;28;20044;-80
2022/02/11 00:24:09;;;;;;;14.38;7.20;;;6.40;99.90;;;;;;5001866;28;20036;-79
2022/02/11 00:26:38;;;;;;;11.48;6.38;;;6.50;99.90;;;;;;5007855;28;20048;-82
2022/02/11 00:34:29;;;;;;;5.50;3.10;;;6.80;99.90;;;;;;5021710;28;20152;-80
2022/02/11 00:37:09;;;;;;;5.47;2.20;;;6.80;99.90;;;;;;5019394;28;20124;-80
2022/02/11 01:04:25;;;;;;;1.10;0.50;;;6.30;99.90;;;;;;5017365;28;20056;-82
2022/02/11 01:06:52;;;;;;;1.42;0.60;;;6.20;99.90;;;;;;4995771;28;20029;-82
2022/02/11 01:09:18;;;;;;;1.42;0.80;;;6.30;99.90;;;;;;5019385;28;20101;-78
2022/02/11 01:11:50;;;;;;;0.60;0.40;;;6.10;99.90;;;;;;5000243;28;20108;-82
2022/02/11 01:14:19;;;;;;;0.57;0.50;;;6.00;99.90;;;;;;5001242;28;20032;-78
2022/02/11 01:16:52;;;;;;;0.80;0.55;;;5.90;99.90;;;;;;4995253;28;20025;-81
2022/02/11 01:22:31;;;;;;;0.85;0.60;;;6.00;99.90;;;;;;5018889;28;20033;-81
2022/02/11 01:25:07;;;;;;;2.22;0.60;;;6.00;99.90;;;;;;5018205;28;20845;-83
2022/02/11 01:35:20;;;;;;;0.63;0.45;;;5.80;99.90;;;;;;5019531;28;20108;-78
2022/02/11 01:38:02;;;;;;;3.33;1.45;;;5.80;99.90;;;;;;5017885;28;20140;-77
2022/02/11 01:53:31;;;;;;;6.03;2.47;;;5.70;99.90;;;;;;5020079;28;20600;-80
2022/02/11 01:56:46;;;;;;;1.65;0.90;;;;;;;;;;5029359;28;20107;-77
2022/02/11 02:12:52;;;;;;;3.78;1.77;;;5.40;99.90;;;;;;5020345;28;20044;-81
2022/02/11 02:58:08;;;;;;;5.80;2.38;;;;;;;;;;5013722;28;20087;-79
2022/02/11 03:00:57;;;;;;;5.55;2.97;;;;;;;;;;5037905;28;20033;-81
2022/02/11 03:17:52;;;;;;;8.30;2.85;;;;;;;;;;5035005;28;20033;-80
2022/02/11 04:55:26;;;;;;;7.07;3.92;;;4.40;99.90;;;;;;5021048;28;20095;-79
2022/02/11 05:00:39;;;;;;;8.55;4.20;;;4.40;99.90;;;;;;5019561;28;20049;-78
2022/02/11 05:03:06;;;;;;;9.82;4.10;;;4.60;99.90;;;;;;5001630;28;20045;-79
2022/02/11 05:05:49;;;;;;;8.45;3.80;;;4.50;99.90;;;;;;5015837;28;20043;-80
2022/02/11 05:08:26;;;;;;;8.60;4.53;;;4.50;99.90;;;;;;4997079;28;20539;-77
2022/02/11 05:10:54;;;;;;;9.35;4.50;;;4.60;99.90;;;;;;5015868;28;20103;-79
2022/02/11 05:13:21;;;;;;;10.35;4.72;;;4.60;99.90;;;;;;5031754;28;20437;-79
2022/02/11 05:15:48;;;;;;;9.68;4.22;;;4.70;99.90;;;;;;4997463;28;20060;-78
2022/02/11 05:18:19;;;;;;;11.55;5.05;;;4.40;99.90;;;;;;4998157;28;20025;-78
2022/02/11 05:20:46;;;;;;;8.63;4.03;;;4.50;99.90;;;;;;4999790;28;20555;-79
2022/02/11 05:23:14;;;;;;;6.90;4.00;;;4.40;99.90;;;;;;5001776;28;20072;-78
2022/02/11 05:25:42;;;;;;;9.88;5.00;;;4.40;99.90;;;;;;5008422;28;20029;-78
2022/02/11 05:28:11;;;;;;;8.75;5.22;;;4.40;99.90;;;;;;5025636;28;20029;-78
2022/02/11 05:30:38;;;;;;;9.98;4.75;;;4.40;99.90;;;;;;5019215;28;20032;-79
2022/02/11 05:33:07;;;;;;;9.20;4.95;;;4.50;99.90;;;;;;5032037;28;20101;-79
2022/02/11 05:35:34;;;;;;;10.30;4.70;;;4.50;99.90;;;;;;5036175;28;20030;-78
2022/02/11 05:38:00;;;;;;;7.90;4.47;;;4.50;99.90;;;;;;5016415;28;20029;-80
2022/02/11 05:40:28;;;;;;;9.75;4.50;;;4.50;99.90;;;;;;5010512;28;20036;-78
2022/02/11 05:42:55;;;;;;;9.15;4.72;;;4.50;99.90;;;;;;5014018;28;20228;-79
2022/02/11 05:45:22;;;;;;;8.77;4.28;;;4.60;99.90;;;;;;5014560;28;20068;-78
2022/02/11 05:47:48;;;;;;;9.52;4.65;;;4.50;99.90;;;;;;5016573;28;20062;-79
2022/02/11 05:50:15;;;;;;;10.38;5.47;;;4.50;99.90;;;;;;5015088;28;20413;-79
2022/02/11 05:52:42;;;;;;;11.48;5.10;;;4.40;99.90;;;;;;5014600;28;20061;-78
2022/02/11 05:55:09;;;;;;;9.73;5.38;;;4.40;99.90;;;;;;5016398;28;20026;-79
2022/02/11 05:57:36;;;;;;;14.60;6.80;;;4.30;99.90;;;;;;5015967;28;20045;-77
2022/02/11 06:00:04;;;;;;;12.60;5.45;;;4.20;99.90;;;;;;5017830;28;21265;-78
2022/02/11 06:02:31;;;;;;;9.27;4.95;;;4.20;99.90;;;;;;5032368;28;20036;-78
2022/02/11 06:04:57;;;;;;;14.80;7.13;;;4.30;99.90;;;;;;5030075;28;20033;-79
2022/02/11 06:07:24;;;;;;;10.95;5.40;;;4.30;99.90;;;;;;5009240;28;20089;-79
2022/02/11 06:09:52;;;;;;;9.18;5.55;;;4.30;99.90;;;;;;5030126;28;20056;-79
2022/02/11 06:12:18;;;;;;;11.35;5.80;;;4.30;99.90;;;;;;5014727;28;20040;-78
2022/02/11 06:14:48;;;;;;;12.63;6.05;;;4.30;99.90;;;;;;5012847;28;20058;-77
2022/02/11 06:17:20;;;;;;;13.07;5.63;;;4.30;99.90;;;;;;5026950;28;20017;-76
2022/02/11 06:19:51;;;;;;;10.27;5.60;;;4.40;99.90;;;;;;5026100;28;20387;-78
2022/02/11 06:22:18;;;;;;;14.30;5.90;;;4.40;99.90;;;;;;5005602;28;20737;-78
2022/02/11 06:24:44;;;;;;;11.77;5.93;;;4.50;99.90;;;;;;5032259;28;20037;-79
2022/02/11 06:27:12;;;;;;;12.48;5.57;;;4.50;99.90;;;;;;5000396;28;20504;-77
2022/02/11 06:29:39;;;;;;;13.50;6.03;;;4.60;99.90;;;;;;5015975;28;20133;-79
2022/02/11 06:32:05;;;;;;;13.10;5.88;;;4.40;99.90;;;;;;5001493;28;20037;-79
2022/02/11 06:34:32;;;;;;;12.80;5.60;;;4.40;99.90;;;;;;5012533;28;20029;-79
2022/02/11 06:36:59;;;;;;;13.75;6.93;;;4.40;99.90;;;;;;5016662;28;20397;-78
2022/02/11 06:39:26;;;;;;;11.57;5.47;;;4.30;99.90;;;;;;5017201;28;20048;-80
2022/02/11 06:41:53;;;;;;;15.38;6.40;;;;;;;;;;4999303;28;20034;-78
2022/02/11 06:44:20;;;;;;;11.15;5.68;;;4.20;99.90;;;;;;5000850;28;20038;-77
2022/02/11 06:46:46;;;;;;;11.18;5.20;;;4.20;99.90;;;;;;4994678;28;20489;-78
2022/02/11 06:49:12;;;;;;;20.25;6.45;;;4.20;99.90;;;;;;5010890;28;20099;-79
2022/02/11 06:51:39;;;;;;;13.45;6.40;;;4.20;99.90;;;;;;5017553;28;20036;-79
2022/02/11 06:54:05;;;;;;;13.25;5.47;;;4.20;99.90;;;;;;4999683;28;20095;-78
2022/02/11 06:56:31;;;;;;;11.27;5.43;;;4.00;99.90;;;;;;5015487;28;20030;-78
2022/02/11 06:58:58;;;;;;;9.75;5.15;;;4.20;99.90;;;;;;5010620;28;22700;-77
2022/02/11 07:01:24;;;;;;;13.18;5.53;;;3.90;99.90;;;;;;5007496;28;20035;-77
2022/02/11 07:03:52;;;;;;;13.98;5.45;;;3.60;99.90;;;;;;5014675;28;20030;-77
2022/02/11 07:06:19;;;;;;;10.68;5.63;;;3.60;99.90;;;;;;5002547;28;20521;-77
2022/02/11 07:08:45;;;;;;;12.40;5.57;;;3.70;99.90;;;;;;5019751;28;20441;-78
2022/02/11 07:11:12;;;;;;;10.60;5.70;;;4.30;99.90;;;;;;5037240;28;20481;-78
2022/02/11 07:13:38;;;;;;;10.50;6.20;;;3.50;99.90;;;;;;5025894;28;20097;-79
2022/02/11 07:16:05;;;;;;;12.00;5.60;;;3.40;99.90;;;;;;5018591;28;20029;-80
2022/02/11 07:18:31;;;;;;;11.63;5.78;;;3.50;99.90;;;;;;5024969;28;20040;-79
2022/02/11 07:20:58;;;;;;;10.95;5.82;;;3.50;99.90;;;;;;5020317;28;20026;-80
2022/02/11 07:23:24;;;;;;;10.07;5.78;;;3.50;99.90;;;;;;5021182;28;20041;-78
2022/02/11 07:25:51;;;;;;;12.18;6.60;;;4.00;99.90;;;;;;5034205;28;20042;-77
2022/02/11 07:28:20;;;;;;;12.68;5.68;;;3.60;99.90;;;;;;5044067;28;20009;-76
2022/02/11 07:30:50;;;;;;;20.15;7.05;;;3.50;99.90;;;;;;5023440;28;20049;-80
2022/02/11 07:33:17;;;;;;;14.52;5.38;;;3.60;99.90;;;;;;5026987;28;20477;-79
2022/02/11 07:35:45;;;;;;;8.98;5.60;;;3.70;99.90;;;;;;5022058;28;20033;-79
2022/02/11 07:38:14;;;;;;;11.00;5.10;;;3.70;99.90;;;;;;5050577;28;20017;-77
2022/02/11 07:40:41;;;;;;;10.93;5.68;;;3.80;99.90;;;;;;5042051;28;20041;-78
2022/02/11 07:43:08;;;;;;;14.27;6.70;;;3.90;99.90;;;;;;5042486;28;20081;-78
2022/02/11 07:45:36;;;;;;;11.60;6.00;;;4.00;99.90;;;;;;5042075;28;20017;-78
2022/02/11 07:48:07;;;;;;;16.65;6.85;;;3.90;99.90;;;;;;5034629;28;20017;-77
2022/02/11 07:50:33;;;;;;;;;;;5.10;99.90;;;;;;5054393;28;20029;-78
2022/02/11 07:52:59;;;;;;;13.23;6.03;;;;;;;;;;5040700;28;19901;-78
2022/02/11 07:55:25;;;;;;;15.27;6.30;;;3.90;99.90;;;;;;5045225;28;20034;-79
2022/02/11 07:57:52;;;;;;;13.18;5.78;;;3.80;99.90;;;;;;5018802;28;20037;-81
2022/02/11 08:00:21;;;;;;;15.10;6.53;;;3.90;99.90;;;;;;5024439;28;20461;-79
2022/02/11 08:02:50;;;;;;;16.08;8.10;;;3.90;99.90;;;;;;5022157;28;20037;-81
2022/02/11 08:05:17;;;;;;;17.60;7.68;;;3.80;99.90;;;;;;5034610;28;20103;-80
2022/02/11 08:07:44;;;;;;;17.02;6.93;;;3.80;99.90;;;;;;5023945;28;20052;-78
2022/02/11 08:10:10;;;;;;;16.02;7.15;;;;;;;;;;5018539;28;20037;-80
2022/02/11 08:12:36;;;;;;;14.82;7.03;;;3.90;99.90;;;;;;5018400;28;20028;-80
2022/02/11 08:15:06;;;;;;;14.55;7.80;;;4.00;99.90;;;;;;5035219;28;20072;-81
2022/02/11 08:17:32;;;;;;;15.67;6.73;;;4.00;99.90;;;;;;5048591;28;20029;-78
2022/02/11 08:19:59;;;;;;;15.05;6.68;;;3.90;99.90;;;;;;5033215;28;20316;-78
2022/02/11 08:22:27;;;;;;;19.48;6.95;;;3.90;99.90;;;;;;5040247;28;20021;-77
2022/02/11 08:24:54;;;;;;;14.52;7.05;;;3.90;99.90;;;;;;5045920;28;20017;-78
2022/02/11 08:27:20;;;;;;;15.57;7.85;;;3.90;99.90;;;;;;5033755;28;20038;-77
2022/02/11 08:29:46;;;;;;;16.55;7.47;;;4.00;99.90;;;;;;5035711;28;20012;-76
2022/02/11 08:32:13;;;;;;;17.85;8.02;;;;;;;;;;5025882;28;20035;-80
2022/02/11 08:34:42;;;;;;;16.63;7.28;;;4.00;99.90;;;;;;5004741;28;20033;-79
2022/02/11 08:37:08;;;;;;;16.48;7.80;;;3.90;99.90;;;;;;5001352;28;20033;-78
2022/02/11 08:39:38;;;;;;;19.23;8.35;;;3.90;99.90;;;;;;4988376;28;20037;-78
2022/02/11 08:42:06;;;;;;;16.90;7.70;;;3.90;99.90;;;;;;4999317;28;20394;-79
2022/02/11 08:44:32;;;;;;;18.65;7.80;;;;;;;;;;5019511;22;20298;-84
2022/02/11 08:46:57;;;;;;;15.82;7.50;;;3.90;99.90;;;;;;5054645;28;20036;-83
2022/02/11 08:49:23;;;;;;;14.52;7.40;;;4.00;99.90;;;;;;5058902;28;20500;-81
2022/02/11 08:51:49;;;;;;;15.45;7.28;;;4.00;99.90;;;;;;5075782;28;20523;-80
2022/02/11 08:54:14;;;;;;;17.73;7.55;;;4.20;99.90;;;;;;5061582;28;20031;-83
2022/02/11 08:56:40;;;;;;;16.00;7.25;;;5.20;99.90;;;;;;5040811;28;20029;-83
2022/02/11 08:59:09;;;;;;;16.70;7.32;;;4.20;99.90;;;;;;5043339;28;20025;-82
2022/02/11 09:01:35;;;;;;;15.73;6.55;;;4.30;99.90;;;;;;5055022;28;20029;-82
2022/02/11 09:04:00;;;;;;;18.95;7.53;;;4.90;99.90;;;;;;5056259;28;20029;-81
2022/02/11 09:06:26;;;;;;;15.02;7.38;;;4.50;99.90;;;;;;5039118;28;20497;-82
2022/02/11 09:08:52;;;;;;;14.93;7.15;;;4.50;99.90;;;;;;5032715;28;20163;-83
2022/02/11 09:11:20;;;;;;;16.05;7.28;;;4.60;99.90;;;;;;5051335;28;20474;-82
2022/02/11 09:13:46;;;;;;;13.13;6.53;;;4.60;99.90;;;;;;5047324;28;20048;-85
2022/02/11 09:16:12;;;;;;;15.52;7.70;;;4.50;99.90;;;;;;5032559;28;20024;-81
2022/02/11 09:18:39;;;;;;;15.45;7.90;;;4.50;99.90;;;;;;5056956;28;20060;-80
2022/02/11 09:21:08;;;;;;;15.60;7.43;;;4.50;99.90;;;;;;5031908;28;20056;-77
2022/02/11 09:23:35;;;;;;;15.07;7.10;;;4.50;99.90;;;;;;5046536;28;20036;-80
2022/02/11 09:26:02;;;;;;;19.95;7.65;;;4.60;99.90;;;;;;5053446;28;20033;-84
2022/02/11 09:28:28;;;;;;;14.57;6.68;;;4.70;99.90;;;;;;5035320;28;20017;-85
2022/02/11 09:30:53;;;;;;;12.88;6.95;;;5.10;99.90;;;;;;5033495;28;20017;-84
2022/02/11 09:33:19;;;;;;;17.10;6.93;;;5.20;99.90;;;;;;5047070;28;20131;-84
2022/02/11 09:35:49;;;;;;;14.60;6.40;;;5.50;99.90;;;;;;5043725;28;20029;-85
2022/02/11 09:38:18;;;;;;;12.57;5.35;;;6.00;99.90;;;;;;5058105;28;20494;-85
2022/02/11 09:40:50;;;;;;;13.77;5.32;;;6.30;99.90;;;;;;5058366;28;20029;-83
2022/02/11 09:43:17;;;;;;;19.80;7.22;;;6.70;99.90;;;;;;5047516;28;20465;-83
2022/02/11 09:45:44;;;;;;;13.30;5.55;;;7.00;99.90;;;;;;5032269;28;20064;-85
2022/02/11 09:48:10;;;;;;;13.23;5.45;;;6.80;99.90;;;;;;5035095;28;20409;-83
2022/02/11 09:50:36;;;;;;;14.13;5.57;;;6.70;99.90;;;;;;5040239;28;20088;-82
2022/02/11 09:53:02;;;;;;;10.40;4.85;;;;;;;;;;5064139;28;20052;-80
2022/02/11 09:55:37;;;;;;;13.40;6.00;;;6.80;99.90;;;;;;5050784;28;20112;-87
2022/02/11 09:58:11;;;;;;;12.45;5.03;;;7.00;99.90;;;;;;5045967;28;20043;-84
2022/02/11 10:00:39;;;;;;;9.90;4.85;;;5.60;99.90;;;;;;5032691;28;20029;-81
2022/02/11 10:03:21;;;;;;;11.07;5.13;;;8.90;99.90;;;;;;5054609;28;20021;-82
2022/02/11 10:05:48;;;;;;;12.57;5.70;;;6.30;99.90;;;;;;5053920;28;20060;-84
2022/02/11 10:08:15;;;;;;;15.73;5.47;;;7.90;99.90;;;;;;5055349;28;20021;-85
2022/02/11 10:11:02;;;;;;;12.00;5.32;;;;;;;;;;5048791;28;20028;-89
2022/02/11 10:13:33;;;;;;;15.45;5.53;;;6.20;99.90;;;;;;5052307;28;20025;-87
2022/02/11 10:16:01;;;;;;;9.70;4.75;;;6.00;99.90;;;;;;5041701;28;20063;-86
2022/02/11 10:18:31;;;;;;;11.65;4.97;;;6.30;99.90;;;;;;5049094;28;20036;-85
2022/02/11 10:21:00;;;;;;;11.32;4.97;;;8.90;99.90;;;;;;5048610;28;20070;-85
2022/02/11 10:23:36;;;;;;;9.23;4.65;;;9.60;99.90;;;;;;5049651;28;20097;-82
2022/02/11 10:26:13;;;;;;;11.30;4.47;;;9.90;99.90;;;;;;5045853;28;20021;-82
2022/02/11 10:28:39;;;;;;;10.93;3.92;;;;;;;;;;5048980;28;20025;-81
2022/02/11 10:31:21;;;;;;;9.13;4.00;;;7.10;99.90;;;;;;5058598;28;20029;-84
2022/02/11 10:33:50;;;;;;;12.25;4.72;;;;;;;;;;5041104;28;20025;-82
2022/02/11 10:36:17;;;;;;;9.50;4.30;;;7.10;99.90;;;;;;5048149;28;20039;-82
2022/02/11 10:38:43;;;;;;;10.32;4.20;;;8.00;99.90;;;;;;5033131;28;20025;-86
2022/02/11 10:41:09;;;;;;;14.48;5.15;;;;;;;;;;5036232;28;20430;-83
2022/02/11 10:43:35;;;;;;;14.95;5.60;;;6.90;99.90;;;;;;5050818;28;20036;-84
2022/02/11 10:46:01;;;;;;;12.23;4.57;;;6.90;99.90;;;;;;5029433;28;20257;-84
2022/02/11 10:48:33;;;;;;;10.55;4.63;;;6.90;99.90;;;;;;5031430;28;20506;-87
2022/02/11 10:51:01;;;;;;;10.02;4.65;;;10.50;99.90;;;;;;5046199;28;20025;-87
2022/02/11 10:53:32;;;;;;;13.35;4.65;;;9.80;99.90;;;;;;5052874;28;20340;-85
2022/02/11 10:55:59;;;;;;;;;;;6.70;99.90;;;;;;5049224;28;20276;-87
2022/02/11 10:58:28;;;;;;;9.77;4.40;;;;;;;;;;5046780;28;19909;-85
2022/02/11 11:00:56;;;;;;;10.27;3.88;;;;;;;;;;5052510;28;20119;-82
2022/02/11 11:03:22;;;;;;;11.88;4.32;;;;;;;;;;5041496;28;20035;-83
2022/02/11 11:05:51;;;;;;;10.95;3.50;;;6.90;99.90;;;;;;5049233;28;20050;-83
2022/02/11 11:08:18;;;;;;;11.60;3.58;;;8.30;99.90;;;;;;5058765;28;20032;-85
2022/02/11 11:10:46;;;;;;;11.80;3.78;;;6.80;99.90;;;;;;5052224;28;20035;-82
2022/02/11 11:13:14;;;;;;;9.00;3.55;;;7.00;99.90;;;;;;5051829;28;20117;-82
2022/02/11 11:15:44;;;;;;;13.82;4.03;;;7.90;99.90;;;;;;5031448;28;20018;-80
2022/02/11 11:18:11;;;;;;;9.88;3.60;;;6.90;99.90;;;;;;5041580;28;20056;-83
2022/02/11 11:20:38;;;;;;;12.52;3.75;;;6.80;99.90;;;;;;5033442;28;20574;-83
2022/02/11 11:23:17;;;;;;;8.98;4.07;;;7.00;99.90;;;;;;5052841;28;20108;-83
2022/02/11 11:25:52;;;;;;;11.82;3.75;;;6.90;99.90;;;;;;5056857;28;20025;-86
2022/02/11 11:28:47;;;;;;;11.02;3.72;;;7.00;99.90;;;;;;5057708;28;20494;-84
2022/02/11 11:31:28;;;;;;;10.63;3.60;;;7.10;99.90;;;;;;5060397;28;20021;-82
2022/02/11 11:34:15;;;;;;;14.95;3.50;;;7.10;99.90;;;;;;5030795;28;20379;-84
2022/02/11 11:36:49;;;;;;;12.18;3.45;;;7.10;99.90;;;;;;5035727;28;20033;-81
2022/02/11 11:39:16;;;;;;;12.68;3.63;;;7.70;99.90;;;;;;5025115;28;20056;-86
2022/02/11 11:41:42;;;;;;;9.77;2.92;;;7.20;99.90;;;;;;5057344;28;20112;-84
2022/02/11 11:44:27;;;;;;;10.80;3.50;;;7.20;99.90;;;;;;5032549;28;20048;-81
2022/02/11 11:46:59;;;;;;;10.80;2.95;;;7.40;99.90;;;;;;5052192;28;20201;-81
2022/02/11 11:49:26;;;;;;;10.23;3.22;;;7.30;99.90;;;;;;5040519;28;20029;-81
2022/02/11 11:51:52;;;;;;;7.82;3.45;;;7.40;99.90;;;;;;5042923;28;20073;-83
2022/02/11 11:54:17;;;;;;;10.45;3.10;;;7.50;99.90;;;;;;5061948;28;20028;-79
2022/02/11 11:56:55;;;;;;;9.45;3.03;;;7.60;99.90;;;;;;5068606;28;20084;-81
2022/02/11 11:59:32;;;;;;;11.90;3.28;;;7.50;99.90;;;;;;5058437;28;20035;-83
2022/02/11 12:02:04;;;;;;;9.20;3.38;;;7.60;99.90;;;;;;5043575;28;20029;-83
2022/02/11 12:04:32;;;;;;;9.32;3.28;;;7.40;99.90;;;;;;5049278;28;20082;-81
2022/02/11 12:07:03;;;;;;;7.95;3.60;;;7.50;99.90;;;;;;5031389;28;20036;-84
2022/02/11 12:09:30;;;;;;;11.85;3.78;;;7.50;99.90;;;;;;5054019;28;20041;-83
2022/02/11 12:12:02;;;;;;;9.43;3.30;;;7.60;99.90;;;;;;5057943;28;20029;-82
2022/02/11 12:14:33;;;;;;;10.32;3.70;;;7.70;99.90;;;;;;5052616;28;20032;-84
2022/02/11 12:16:59;;;;;;;;;;;7.80;99.90;;;;;;5057243;28;20028;-83
2022/02/11 12:19:26;;;;;;;11.45;3.60;;;7.70;99.90;;;;;;5060760;28;19916;-83
2022/02/11 12:21:52;;;;;;;10.63;3.53;;;7.70;99.90;;;;;;5063786;28;20413;-84
2022/02/11 12:27:21;;;;;;;9.85;3.38;;;7.80;99.90;;;;;;5065036;28;20035;-80
2022/02/11 12:30:18;;;;;;;8.48;3.50;;;7.70;99.90;;;;;;5048999;28;20025;-83
2022/02/11 12:32:53;;;;;;;11.38;4.38;;;7.50;99.90;;;;;;5044235;28;20044;-84
2022/02/11 12:35:27;;;;;;;8.07;3.28;;;7.50;99.90;;;;;;5040566;28;20024;-83
2022/02/11 12:37:53;;;;;;;7.95;2.97;;;7.50;99.90;;;;;;5060498;28;20025;-84
2022/02/11 12:40:28;;;;;;;9.77;3.70;;;7.60;99.90;;;;;;5066089;28;20050;-81
2022/02/11 12:42:56;;;;;;;10.65;3.33;;;7.50;99.90;;;;;;5039309;28;20021;-84
2022/02/11 12:45:26;;;;;;;13.05;3.70;;;6.60;99.90;;;;;;5037164;28;20033;-86
2022/02/11 12:47:53;;;;;;;12.57;3.83;;;7.90;99.90;;;;;;5046620;28;20036;-85
2022/02/11 12:50:30;;;;;;;8.93;3.00;;;7.90;99.90;;;;;;5052532;28;20025;-89
2022/02/11 12:53:01;;;;;;;9.68;2.75;;;8.40;99.90;;;;;;5061604;28;20027;-82
2022/02/11 12:55:30;;;;;;;11.23;3.13;;;;;;;;;;5059309;28;20503;-83
2022/02/11 12:57:58;;;;;;;11.45;3.08;;;8.40;99.90;;;;;;5060300;28;20110;-81
2022/02/11 13:00:31;;;;;;;11.40;3.13;;;8.20;99.90;;;;;;5044175;28;20025;-85
2022/02/11 13:03:00;;;;;;;9.52;3.13;;;10.40;99.90;;;;;;5044552;28;20106;-82
2022/02/11 13:05:30;;;;;;;9.50;2.40;;;8.30;99.90;;;;;;5050879;28;20069;-85
2022/02/11 13:08:00;;;;;;;10.55;2.90;;;8.30;99.90;;;;;;5057469;28;20107;-87
2022/02/11 13:10:31;;;;;;;8.35;3.22;;;8.20;99.00;;;;;;5061093;28;20742;-82
2022/02/11 13:12:58;;;;;;;;;;;8.60;99.60;;;;;;5046999;28;20029;-82
2022/02/11 13:15:29;;;;;;;12.90;2.20;;;8.20;99.80;;;;;;5063240;28;19952;-83
2022/02/11 13:18:11;;;;;;;10.68;2.40;;;8.20;99.50;;;;;;5053681;28;20029;-86
2022/02/11 13:21:00;;;;;;;9.45;2.50;;;8.10;99.40;;;;;;5055394;28;20045;-84
2022/02/11 13:23:26;;;;;;;10.93;2.70;;;;;;;;;;5061584;28;20032;-85
2022/02/11 13:25:55;;;;;;;10.35;2.92;;;8.00;99.30;;;;;;5058332;28;20028;-82
2022/02/11 13:28:22;;;;;;;8.57;2.03;;;8.00;99.60;;;;;;5046788;28;20052;-84
2022/02/11 13:31:00;;;;;;;7.22;1.85;;;10.60;99.90;;;;;;5058334;28;20031;-85
2022/02/11 13:33:37;;;;;;;11.43;2.83;;;7.50;99.90;;;;;;5039989;28;20051;-82
2022/02/11 13:36:05;;;;;;;8.40;2.47;;;7.80;99.90;;;;;;5057171;28;20041;-85
2022/02/11 13:38:33;;;;;;;7.28;2.28;;;7.70;99.90;;;;;;5052772;28;20103;-85
2022/02/11 13:41:07;;;;;;;13.15;2.30;;;8.20;99.90;;;;;;5055430;28;20040;-83
2022/02/11 13:43:52;;;;;;;10.13;2.60;;;7.70;99.90;;;;;;5039129;28;20032;-81
2022/02/11 13:46:38;;;;;;;10.95;2.38;;;8.70;99.90;;;;;;5048341;28;20088;-83
2022/02/11 13:49:05;;;;;;;11.20;2.28;;;7.60;99.90;;;;;;5074099;28;20021;-83
2022/02/11 13:51:34;;;;;;;9.10;2.30;;;7.60;99.90;;;;;;5039160;28;20059;-89
2022/02/11 13:54:18;;;;;;;10.60;2.80;;;7.50;99.90;;;;;;5054326;28;20033;-84
2022/02/11 13:56:48;;;;;;;10.52;2.50;;;7.60;99.90;;;;;;5049871;28;20041;-85
2022/02/11 13:59:18;;;;;;;10.13;2.42;;;10.40;99.90;;;;;;5062522;28;20021;-82
2022/02/11 14:01:46;;;;;;;9.00;2.15;;;7.60;99.90;;;;;;5057809;28;20036;-82
2022/02/11 14:04:14;;;;;;;12.40;3.33;;;7.60;99.90;;;;;;5050687;28;20402;-86
2022/02/11 14:06:55;;;;;;;10.48;2.65;;;7.80;99.90;;;;;;5056365;28;20047;-82
2022/02/11 14:09:31;;;;;;;13.93;2.85;;;7.60;99.90;;;;;;5039391;28;20017;-88
2022/02/11 14:11:58;;;;;;;7.38;2.33;;;7.60;99.90;;;;;;5052498;28;20433;-82
2022/02/11 14:14:24;;;;;;;9.70;2.20;;;7.70;99.90;;;;;;5040396;28;20092;-86
2022/02/11 14:16:51;;;;;;;7.75;2.00;;;10.00;99.90;;;;;;5063568;28;20037;-86
2022/02/11 14:19:25;;;;;;;7.25;2.20;;;7.70;99.90;;;;;;5055830;28;20025;-85
2022/02/11 14:21:57;;;;;;;7.38;2.00;;;7.70;99.90;;;;;;5062978;28;20032;-85
2022/02/11 14:24:24;;;;;;;10.32;2.08;;;7.70;99.90;;;;;;5038621;28;20025;-85
2022/02/11 14:26:50;;;;;;;8.63;2.67;;;7.90;99.50;;;;;;5064622;28;20032;-82
2022/02/11 14:29:18;;;;;;;7.50;1.90;;;10.40;98.90;;;;;;5065397;28;20045;-80
2022/02/11 14:31:45;;;;;;;8.93;2.42;;;10.50;99.60;;;;;;5041504;28;20051;-78
2022/02/11 14:34:13;;;;;;;10.00;2.55;;;10.50;98.30;;;;;;5036973;28;20025;-84
2022/02/11 14:36:42;;;;;;;10.18;2.17;;;8.30;97.70;;;;;;5047516;28;20050;-82
2022/02/11 14:39:09;;;;;;;11.35;2.47;;;8.50;97.00;;;;;;5030333;28;20033;-84
2022/02/11 14:41:47;;;;;;;12.93;2.95;;;8.50;97.10;;;;;;5033300;28;20037;-83
2022/02/11 14:44:25;;;;;;;9.82;2.35;;;8.60;97.30;;;;;;5031751;28;20056;-82
2022/02/11 14:46:59;;;;;;;10.05;2.30;;;8.70;97.00;;;;;;5052396;28;20037;-80
2022/02/11 14:49:26;;;;;;;10.55;2.40;;;8.70;97.20;;;;;;5040873;28;20021;-82
2022/02/11 14:51:54;;;;;;;7.22;2.03;;;8.80;96.80;;;;;;5048644;28;20433;-78
2022/02/11 14:54:19;;;;;;;9.40;2.33;;;8.80;96.80;;;;;;5062190;28;20052;-83
2022/02/11 14:56:47;;;;;;;9.18;2.72;;;8.70;95.90;;;;;;5059383;28;20552;-82
2022/02/11 14:59:14;;;;;;;9.07;1.80;;;8.40;96.00;;;;;;5054436;28;20036;-81
2022/02/11 15:01:41;;;;;;;9.05;2.20;;;11.50;97.50;;;;;;5053928;28;20032;-83
2022/02/11 15:04:07;;;;;;;7.30;2.22;;;8.60;97.00;;;;;;5058667;28;20033;-81
2022/02/11 15:06:33;;;;;;;7.68;1.90;;;8.70;96.60;;;;;;5034936;28;20035;-85
2022/02/11 15:08:58;;;;;;;11.45;2.30;;;8.60;96.00;;;;;;5043153;28;21123;-77
2022/02/11 15:11:25;;;;;;;8.60;2.20;;;7.10;96.00;;;;;;5050016;28;20029;-85
2022/02/11 15:13:51;;;;;;;12.48;2.60;;;8.70;95.80;;;;;;5046156;28;20092;-82
2022/02/11 15:16:17;;;;;;;12.15;2.63;;;8.70;96.10;;;;;;5053981;28;20052;-80
2022/02/11 15:18:42;;;;;;;9.77;2.53;;;8.60;96.10;;;;;;5058203;28;20068;-80
2022/02/11 15:21:08;;;;;;;7.25;2.40;;;8.60;96.70;;;;;;5044823;28;20097;-85
2022/02/11 15:23:38;;;;;;;10.65;2.72;;;8.60;96.80;;;;;;5040443;28;20061;-81
2022/02/11 15:26:05;;;;;;;6.78;2.15;;;8.60;97.20;;;;;;5047702;28;20037;-86
2022/02/11 15:28:37;;;;;;;9.20;2.30;;;8.40;98.00;;;;;;5057928;28;20035;-83
2022/02/11 15:31:03;;;;;;;7.13;2.10;;;8.40;97.20;;;;;;5044191;28;20071;-83
2022/02/11 15:33:29;;;;;;;9.50;2.33;;;8.40;96.20;;;;;;5058760;28;20021;-83
2022/02/11 15:35:55;;;;;;;6.30;2.03;;;9.80;96.80;;;;;;5048688;28;20036;-83
2022/02/11 15:38:21;;;;;;;7.28;2.38;;;10.30;97.70;;;;;;5045710;28;20594;-81
2022/02/11 15:40:48;;;;;;;9.35;2.72;;;8.30;97.00;;;;;;5061588;28;20021;-83
2022/02/11 15:43:15;;;;;;;9.55;2.13;;;8.40;96.20;;;;;;5043601;28;20084;-78
2022/02/11 15:45:44;;;;;;;10.63;2.10;;;9.80;95.90;;;;;;5038241;28;20035;-84
2022/02/11 15:48:11;;;;;;;9.80;2.45;;;8.40;95.10;;;;;;5032848;28;20017;-84
2022/02/11 15:50:41;;;;;;;8.88;2.25;;;9.30;95.40;;;;;;5049106;28;20051;-79
2022/02/11 15:53:13;;;;;;;8.55;2.47;;;8.40;92.90;;;;;;5067727;28;20405;-86
2022/02/11 15:55:39;;;;;;;8.13;2.35;;;8.30;93.90;;;;;;5059677;28;20453;-83
2022/02/11 15:58:05;;;;;;;10.52;2.10;;;8.20;94.40;;;;;;5066597;28;20025;-82
2022/02/11 16:00:33;;;;;;;10.00;2.10;;;8.20;94.30;;;;;;5058425;28;20036;-86
2022/02/11 16:02:59;;;;;;;10.52;2.10;;;8.20;94.00;;;;;;5031028;28;20067;-82
2022/02/11 16:05:25;;;;;;;8.25;2.10;;;8.10;94.70;;;;;;5046984;28;20029;-84
2022/02/11 16:07:54;;;;;;;10.63;2.67;;;;;;;;;;5064037;28;20052;-83
2022/02/11 16:10:21;;;;;;;9.77;2.15;;;8.00;95.30;;;;;;5049536;28;20032;-85
2022/02/11 16:12:47;;;;;;;8.80;2.40;;;8.00;95.50;;;;;;5064396;28;20363;-84
2022/02/11 16:15:14;;;;;;;11.60;2.35;;;;;;;;;;5059077;28;20108;-86
2022/02/11 16:17:59;;;;;;;8.32;2.33;;;7.90;95.40;;;;;;5048053;28;20057;-86
2022/02/11 16:20:30;;;;;;;7.88;2.22;;;7.70;96.40;;;;;;5048674;28;20120;-84
2022/02/11 16:22:57;;;;;;;6.43;1.70;;;;;;;;;;5047509;28;20029;-86
2022/02/11 16:25:23;;;;;;;7.22;2.10;;;7.70;94.10;;;;;;5048844;28;20025;-82
2022/02/11 16:27:51;;;;;;;8.95;2.00;;;7.70;94.70;;;;;;5060201;28;20029;-80
2022/02/11 16:30:17;;;;;;;7.60;1.73;;;;;;;;;;5042251;28;20486;-83
2022/02/11 16:32:43;;;;;;;8.30;2.45;;;7.60;95.10;;;;;;5060018;28;20025;-81
2022/02/11 16:35:09;;;;;;;9.77;2.20;;;;;;;;;;5060197;28;20037;-87
2022/02/11 16:37:37;;;;;;;9.27;2.42;;;7.60;95.60;;;;;;5062772;28;20162;-83
2022/02/11 16:40:06;;;;;;;12.38;2.92;;;7.40;95.60;;;;;;5058327;28;20398;-81
2022/02/11 16:42:35;;;;;;;8.60;2.15;;;7.60;96.30;;;;;;5050912;28;20020;-81
2022/02/11 16:45:02;;;;;;;6.10;2.00;;;7.60;96.20;;;;;;5063757;28;20035;-84
2022/02/11 16:47:29;;;;;;;5.45;1.85;;;9.00;96.80;;;;;;5055339;28;20033;-83
2022/02/11 16:49:55;;;;;;;9.23;1.85;;;7.60;96.30;;;;;;5064129;28;20020;-81
2022/02/11 16:52:21;;;;;;;9.52;1.80;;;7.40;97.40;;;;;;5046997;28;20585;-83
2022/02/11 16:54:46;;;;;;;10.43;2.15;;;9.80;98.30;;;;;;5028499;28;20032;-83
2022/02/11 16:57:12;;;;;;;9.48;1.80;;;7.50;98.20;;;;;;5035406;28;20101;-84